Time;durP1;ratioP1;P1;durP2;ratioP2;P2;SDS_P1;SDS_P2;PMS_P1;PMS_P2;Temp;Humidity;BMP_temperature;BMP_pressure;BME280_temperature;BME280_humidity;BME280_pressure;Samples;Min_cycle;Max_cycle;Signal;HPM_P1;HPM_P2
2022/05/24 00:01:51;;;;;;;15.68;7.03;;;;;;;19.59;64.22;99331.53;5006776;27;119951;-74
2022/05/24 00:04:17;;;;;;;15.38;7.70;;;;;;;19.52;64.29;99323.84;4991364;28;119952;-74
2022/05/24 00:06:42;;;;;;;16.50;7.80;;;;;;;19.52;64.48;99319.03;5010082;28;119985;-76
2022/05/24 00:09:08;;;;;;;15.63;7.38;;;;;;;19.51;64.13;99319.56;5010683;28;119918;-75
2022/05/24 00:11:34;;;;;;;17.88;8.20;;;;;;;19.49;64.96;99316.59;5009972;27;119587;-76
2022/05/24 00:13:59;;;;;;;15.63;7.77;;;;;;;19.47;64.75;99314.38;4991170;28;121213;-75
2022/05/24 00:16:26;;;;;;;16.93;7.90;;;;;;;19.46;65.03;99310.09;5014103;28;119766;-74
2022/05/24 00:18:52;;;;;;;16.15;8.48;;;;;;;19.45;64.93;99303.03;5008597;28;120087;-76
2022/05/24 00:21:17;;;;;;;14.20;8.03;;;;;;;19.45;65.02;99293.97;5010644;28;119653;-75
2022/05/24 00:23:43;;;;;;;15.47;7.83;;;;;;;19.43;64.89;99296.53;5010375;27;119468;-74
2022/05/24 00:26:10;;;;;;;17.40;8.03;;;;;;;19.42;64.80;99284.69;4971497;27;122813;-75
2022/05/24 00:28:36;;;;;;;17.23;8.10;;;;;;;19.40;64.89;99273.34;4999080;28;120536;-75
2022/05/24 00:31:03;;;;;;;16.00;8.23;;;;;;;19.39;64.82;99285.75;5008465;28;120184;-75
2022/05/24 00:33:31;;;;;;;16.73;8.60;;;;;;;19.37;65.25;99273.69;5005740;28;120092;-75
2022/05/24 00:35:57;;;;;;;18.80;9.38;;;;;;;19.35;65.75;99277.00;4989273;28;119786;-75
2022/05/24 00:38:33;;;;;;;15.75;8.20;;;;;;;19.34;65.39;99269.97;5009598;28;120142;-74
2022/05/24 00:41:22;;;;;;;13.52;7.43;;;;;;;19.33;64.61;99260.13;5007214;28;119500;-75
2022/05/24 00:44:03;;;;;;;16.45;8.52;;;;;;;19.27;64.98;99254.72;4987640;28;119640;-74
2022/05/24 00:46:42;;;;;;;18.20;9.48;;;;;;;19.30;65.47;99267.53;5009623;28;120562;-75
2022/05/24 00:49:25;;;;;;;13.90;9.13;;;;;;;19.30;65.59;99261.22;5008408;28;119707;-75
2022/05/24 00:52:17;;;;;;;15.70;9.40;;;;;;;19.33;65.74;99271.25;4982763;28;119740;-75
2022/05/24 00:54:46;;;;;;;13.47;9.20;;;;;;;19.33;65.43;99258.09;4990763;28;120026;-74
2022/05/24 00:57:26;;;;;;;12.75;8.65;;;;;;;19.36;65.28;99272.19;4992339;28;119586;-74
2022/05/24 01:00:07;;;;;;;15.50;9.48;;;;;;;19.34;65.63;99272.72;5007367;28;119918;-75
2022/05/24 01:02:36;;;;;;;17.30;9.80;;;;;;;19.35;65.54;99259.56;4994338;28;120388;-75
2022/05/24 01:05:08;;;;;;;16.35;9.88;;;;;;;19.36;65.58;99267.38;5007904;28;120394;-75
2022/05/24 01:07:37;;;;;;;18.15;9.73;;;;;;;19.36;65.58;99253.47;5007663;28;120471;-75
2022/05/24 01:10:02;;;;;;;17.30;9.73;;;;;;;19.38;65.59;99255.69;5008454;28;119568;-75
2022/05/24 01:12:44;;;;;;;16.92;9.70;;;;;;;19.36;65.74;99255.50;5008695;28;119877;-76
2022/05/24 01:15:23;;;;;;;19.50;10.00;;;;;;;19.37;65.62;99246.63;5009055;28;120061;-77
2022/05/24 01:17:54;;;;;;;16.02;9.73;;;;;;;19.37;65.50;99243.09;4985549;28;119773;-75
2022/05/24 01:20:27;;;;;;;14.75;10.23;;;;;;;19.37;66.28;99243.84;5008458;28;120431;-75
2022/05/24 01:23:19;;;;;;;18.23;10.45;;;;;;;19.38;65.72;99242.56;5012341;28;120007;-74
2022/05/24 01:26:10;;;;;;;19.80;11.48;;;;;;;19.39;66.21;99237.72;5009195;28;119479;-75
2022/05/24 01:28:45;;;;;;;21.80;11.30;;;;;;;19.38;66.41;99239.78;5007138;28;120383;-75
2022/05/24 01:31:11;;;;;;;19.03;11.67;;;;;;;19.33;66.02;99230.28;5008771;28;119891;-77
2022/05/24 01:36:28;;;;;;;15.93;12.48;;;;;;;19.36;66.13;99231.22;5008998;28;121362;-75
2022/05/24 01:38:58;;;;;;;14.52;12.30;;;;;;;19.34;66.28;99236.59;4988289;28;119909;-75
2022/05/24 01:41:38;;;;;;;16.50;12.50;;;;;;;19.29;66.28;99231.94;4981723;28;119775;-75
2022/05/24 01:44:05;;;;;;;17.03;12.80;;;;;;;19.33;66.27;99240.66;5007591;28;119465;-77
2022/05/24 01:46:41;;;;;;;17.90;12.75;;;;;;;19.34;66.76;99231.03;5012969;28;119541;-75
2022/05/24 01:49:23;;;;;;;18.80;13.40;;;;;;;19.33;66.27;99229.53;4974689;28;120190;-75
2022/05/24 01:52:05;;;;;;;17.55;12.98;;;;;;;19.25;66.48;99218.38;4990561;28;120200;-75
2022/05/24 01:54:38;;;;;;;17.37;13.57;;;;;;;19.31;66.60;99223.78;5008762;28;120357;-74
2022/05/24 01:57:20;;;;;;;19.38;13.88;;;;;;;19.37;66.56;99223.63;4993277;28;119519;-75
2022/05/24 01:59:49;;;;;;;16.70;13.75;;;;;;;19.38;66.30;99230.69;5008545;28;119684;-75
2022/05/24 02:02:16;;;;;;;18.75;13.88;;;;;;;19.37;66.76;99226.41;4989407;28;119451;-75
2022/05/24 02:04:43;;;;;;;17.40;13.48;;;;;;;19.38;66.44;99225.13;5007175;28;119801;-74
2022/05/24 02:07:18;;;;;;;17.15;14.00;;;;;;;19.36;66.36;99228.44;4990281;28;119717;-75
2022/05/24 02:09:48;;;;;;;17.98;14.48;;;;;;;19.44;66.41;99231.31;5012207;28;120046;-77
2022/05/24 02:12:17;;;;;;;21.83;14.73;;;;;;;19.44;66.31;99223.69;4990320;28;120518;-74
2022/05/24 02:14:51;;;;;;;20.17;15.30;;;;;;;19.45;66.68;99227.97;4990872;28;120890;-75
2022/05/24 02:17:24;;;;;;;19.60;14.93;;;;;;;19.47;66.50;99222.59;4986979;28;121771;-75
2022/05/24 02:19:56;;;;;;;18.93;15.30;;;;;;;19.47;66.51;99222.59;5003625;28;120066;-75
2022/05/24 02:22:27;;;;;;;18.58;16.23;;;;;;;19.48;66.63;99218.53;5007997;27;120339;-75
2022/05/24 02:25:05;;;;;;;19.00;15.30;;;;;;;19.48;66.53;99223.34;4987776;28;119740;-75
2022/05/24 02:27:31;;;;;;;20.85;16.10;;;;;;;19.47;66.66;99217.03;5005607;28;119953;-75
2022/05/24 02:30:06;;;;;;;18.60;15.43;;;;;;;19.53;66.54;99225.22;5002170;28;120766;-74
2022/05/24 02:32:37;;;;;;;21.45;16.17;;;;;;;19.53;66.51;99217.66;5009488;28;119687;-75
2022/05/24 02:35:03;;;;;;;19.40;16.50;;;;;;;19.53;66.47;99222.44;4978478;28;119610;-74
2022/05/24 02:37:28;;;;;;;17.63;15.65;;;;;;;19.53;66.40;99226.00;4970116;28;120205;-75
2022/05/24 02:42:48;;;;;;;19.67;16.33;;;;;;;19.55;66.53;99228.22;5002451;28;120448;-75
2022/05/24 02:45:35;;;;;;;22.52;18.27;;;;;;;19.58;66.59;99244.56;5003463;28;120054;-75
2022/05/24 02:48:01;;;;;;;18.47;16.33;;;;;;;19.59;66.71;99250.88;5003881;28;119452;-76
2022/05/24 02:50:26;;;;;;;21.07;18.13;;;;;;;19.62;66.58;99264.41;5002306;27;119602;-75
2022/05/24 02:52:52;;;;;;;16.60;11.47;;;;;;;19.59;66.41;99262.00;5001017;28;120475;-75
2022/05/24 02:55:19;;;;;;;11.73;9.57;;;;;;;19.57;65.76;99270.88;5011843;28;119790;-75
2022/05/24 02:57:45;;;;;;;15.90;10.48;;;;;;;19.56;65.88;99274.22;4989214;28;121401;-75
2022/05/24 03:00:15;;;;;;;12.90;9.63;;;;;;;19.54;65.93;99280.31;5001373;28;119439;-75
2022/05/24 03:02:42;;;;;;;12.20;9.80;;;;;;;19.53;65.92;99283.63;5000437;27;120248;-75
2022/05/24 03:05:10;;;;;;;11.73;8.17;;;;;;;19.50;65.77;99276.38;5007391;28;119393;-75
2022/05/24 03:10:21;;;;;;;14.87;9.50;;;;;;;19.50;65.74;99293.81;5003441;28;120191;-74
2022/05/24 03:15:40;;;;;;;12.05;8.32;;;;;;;19.49;65.86;99306.22;5011002;28;119832;-76
2022/05/24 03:18:11;;;;;;;12.57;9.10;;;;;;;19.49;65.82;99303.44;4995371;28;120075;-75
2022/05/24 03:20:37;;;;;;;11.40;8.75;;;;;;;19.48;65.59;99312.34;4992384;28;119631;-75
2022/05/24 03:23:03;;;;;;;13.80;9.40;;;;;;;19.48;65.83;99313.06;5009923;27;119910;-76
2022/05/24 03:25:41;;;;;;;11.73;8.38;;;;;;;19.48;65.64;99318.63;4972205;28;119972;-74
2022/05/24 03:28:09;;;;;;;12.10;9.02;;;;;;;19.47;65.79;99319.19;5007390;28;119809;-74
2022/05/24 03:30:40;;;;;;;15.57;11.33;;;;;;;19.47;65.80;99322.72;5010184;28;120153;-74
2022/05/24 03:33:07;;;;;;;17.23;13.25;;;;;;;19.49;65.93;99324.94;5006771;27;120052;-75
2022/05/24 03:35:32;;;;;;;21.25;14.07;;;;;;;19.48;65.76;99324.19;5010749;28;119797;-75
2022/05/24 03:37:58;;;;;;;20.40;14.38;;;;;;;19.47;65.66;99330.31;5014716;28;119411;-75
2022/05/24 03:40:24;;;;;;;25.83;16.70;;;;;;;19.48;65.47;99335.31;4992099;28;119667;-75
2022/05/24 03:42:54;;;;;;;28.00;17.90;;;;;;;19.44;65.46;99318.25;4992440;28;120289;-74
2022/05/24 03:45:23;;;;;;;29.77;19.60;;;;;;;19.41;65.35;99327.66;5010280;28;120174;-75
2022/05/24 03:47:51;;;;;;;29.02;17.95;;;;;;;19.38;65.49;99331.50;5010060;28;119396;-75
2022/05/24 03:50:21;;;;;;;30.87;18.90;;;;;;;19.35;65.14;99332.59;4999834;28;120489;-75
2022/05/24 03:52:57;;;;;;;26.80;17.90;;;;;;;19.30;65.37;99327.94;5008520;28;120277;-75
2022/05/24 03:55:27;;;;;;;29.97;19.43;;;;;;;19.30;65.15;99330.72;5007966;28;120089;-75
2022/05/24 03:58:02;;;;;;;29.30;19.27;;;;;;;19.24;64.70;99330.13;4992772;28;119638;-77
2022/05/24 04:00:38;;;;;;;29.50;19.47;;;;;;;19.23;65.09;99337.72;5012907;28;120801;-75
2022/05/24 04:03:08;;;;;;;32.08;19.30;;;;;;;19.22;64.91;99357.72;5005483;27;119708;-76
2022/05/24 04:05:34;;;;;;;30.65;19.23;;;;;;;19.20;64.50;99358.25;5006984;28;120233;-75
2022/05/24 04:08:00;;;;;;;27.40;18.70;;;;;;;19.17;65.25;99364.16;5011092;28;119827;-75
2022/05/24 04:10:31;;;;;;;25.63;17.13;;;;;;;19.14;65.08;99368.00;5002066;28;119458;-75
2022/05/24 04:12:57;;;;;;;33.70;20.17;;;;;;;19.09;65.19;99366.09;4996673;28;120332;-75
2022/05/24 04:15:23;;;;;;;27.73;17.02;;;;;;;19.11;65.04;99377.41;4989349;28;119617;-76
2022/05/24 04:17:51;;;;;;;25.98;16.25;;;;;;;19.09;65.09;99377.22;5000247;28;119928;-75
2022/05/24 04:20:17;;;;;;;25.33;17.55;;;;;;;19.06;65.22;99392.19;4988913;28;123169;-75
2022/05/24 04:22:44;;;;;;;26.83;15.80;;;;;;;19.07;64.89;99374.22;5007171;28;119613;-75
2022/05/24 04:25:11;;;;;;;26.07;15.77;;;;;;;19.10;64.94;99395.38;4975602;28;121719;-75
2022/05/24 04:27:37;;;;;;;23.27;15.20;;;;;;;19.10;65.00;99389.81;5010325;28;120014;-75
2022/05/24 04:30:06;;;;;;;23.17;15.13;;;;;;;19.10;64.66;99406.50;5009342;28;120070;-76
2022/05/24 04:32:31;;;;;;;25.67;15.00;;;;;;;19.06;64.73;99400.53;4990719;28;120089;-74
2022/05/24 04:34:57;;;;;;;25.42;14.95;;;;;;;19.02;64.56;99412.72;5010288;28;119630;-75
2022/05/24 04:37:23;;;;;;;22.52;14.85;;;;;;;19.00;64.63;99420.13;4992626;28;119835;-76
2022/05/24 04:39:51;;;;;;;23.70;13.00;;;;;;;18.98;64.74;99442.13;4991406;28;122070;-75
2022/05/24 04:42:21;;;;;;;18.67;11.95;;;;;;;18.95;64.57;99441.19;5009680;27;120159;-75
2022/05/24 04:44:53;;;;;;;19.40;11.45;;;;;;;18.96;65.03;99439.91;5012702;28;119787;-75
2022/05/24 04:47:21;;;;;;;18.65;10.90;;;;;;;18.98;64.83;99426.22;5010536;28;119752;-75
2022/05/24 04:49:54;;;;;;;17.75;10.25;;;;;;;19.00;64.63;99445.13;5009889;28;119733;-76
2022/05/24 04:52:30;;;;;;;18.67;10.25;;;;;;;19.00;64.45;99443.09;5005069;28;119642;-77
2022/05/24 04:54:56;;;;;;;17.50;10.13;;;;;;;19.00;64.43;99448.66;4957113;28;119537;-75
2022/05/24 04:57:23;;;;;;;20.73;10.03;;;;;;;18.92;64.51;99431.13;4987877;28;119607;-75
2022/05/24 04:59:49;;;;;;;16.73;8.65;;;;;;;18.99;64.72;99449.94;4993893;28;120284;-75
2022/05/24 05:02:19;;;;;;;15.98;8.10;;;;;;;18.99;64.56;99458.25;5001059;28;120064;-75
2022/05/24 05:04:46;;;;;;;17.85;8.05;;;;;;;18.96;63.72;99453.03;5008232;28;120056;-76
2022/05/24 05:07:12;;;;;;;17.35;7.90;;;;;;;18.92;64.38;99458.16;5013454;28;119944;-75
2022/05/24 05:09:38;;;;;;;16.47;9.00;;;;;;;18.89;64.33;99462.75;5009510;28;119328;-76
2022/05/24 05:12:09;;;;;;;16.93;8.33;;;;;;;18.89;64.31;99464.78;5008566;28;120105;-75
2022/05/24 05:14:37;;;;;;;15.83;7.90;;;;;;;18.87;64.57;99472.91;5008927;28;119541;-75
2022/05/24 05:17:09;;;;;;;14.85;8.18;;;;;;;18.87;64.37;99470.88;4992401;28;120245;-75
2022/05/24 05:19:35;;;;;;;15.55;8.25;;;;;;;18.88;64.30;99475.16;5008121;28;120140;-74
2022/05/24 05:22:05;;;;;;;14.57;8.05;;;;;;;18.88;63.86;99479.97;4991218;28;119707;-75
2022/05/24 05:24:31;;;;;;;16.57;7.97;;;;;;;18.88;63.74;99485.53;5007958;28;120408;-76
2022/05/24 05:26:57;;;;;;;17.40;8.60;;;;;;;18.83;63.68;99483.63;4974572;28;122791;-75
2022/05/24 05:32:08;;;;;;;13.45;7.38;;;;;;;18.84;63.33;99493.44;5004599;27;120499;-75
2022/05/24 05:34:34;;;;;;;13.75;7.35;;;;;;;18.80;63.54;99498.56;5009074;28;119407;-74
2022/05/24 05:37:04;;;;;;;13.63;7.50;;;;;;;18.80;63.67;99496.53;5007236;28;120249;-75
2022/05/24 05:39:30;;;;;;;14.60;7.55;;;;;;;18.80;62.90;99493.03;5008923;28;119814;-77
2022/05/24 05:41:56;;;;;;;15.30;7.47;;;;;;;18.75;63.17;99480.00;5008822;28;119669;-75
2022/05/24 05:44:22;;;;;;;14.00;8.13;;;;;;;18.79;63.34;99497.09;4990608;28;119980;-75
2022/05/24 05:46:48;;;;;;;14.05;8.30;;;;;;;18.76;63.69;99489.81;5008689;28;119632;-75
2022/05/24 05:49:15;;;;;;;14.80;9.77;;;;;;;18.77;63.42;99497.63;5011720;28;119626;-75
2022/05/24 05:51:41;;;;;;;18.10;10.45;;;;;;;18.75;63.26;99491.84;4989981;28;119542;-76
2022/05/24 05:54:07;;;;;;;14.10;10.60;;;;;;;18.77;62.88;99496.88;4988868;28;119665;-75
2022/05/24 05:56:32;;;;;;;19.23;11.13;;;;;;;18.76;62.74;99495.38;5008677;28;119503;-75
2022/05/24 05:58:58;;;;;;;16.03;11.53;;;;;;;18.74;63.36;99507.03;5007528;28;120029;-75
2022/05/24 06:01:29;;;;;;;18.47;11.43;;;;;;;18.74;63.52;99509.81;4973564;28;119826;-75
2022/05/24 06:03:59;;;;;;;18.00;11.70;;;;;;;18.76;63.55;99520.38;4990777;28;121823;-75
2022/05/24 06:06:28;;;;;;;18.55;12.40;;;;;;;18.80;63.36;99523.56;5005547;28;120054;-75
2022/05/24 06:08:55;;;;;;;16.90;12.33;;;;;;;18.76;63.19;99518.34;4994979;28;119344;-75
2022/05/24 06:11:22;;;;;;;16.08;12.13;;;;;;;18.74;63.33;99518.13;5010616;28;119418;-75
2022/05/24 06:13:48;;;;;;;17.00;11.98;;;;;;;18.75;63.72;99535.56;5007103;27;119709;-75
2022/05/24 06:16:14;;;;;;;21.50;13.15;;;;;;;18.74;63.25;99532.03;5012727;27;119741;-77
2022/05/24 06:18:40;;;;;;;20.35;13.13;;;;;;;18.72;63.17;99529.03;5014900;27;120110;-74
2022/05/24 06:21:06;;;;;;;19.88;13.88;;;;;;;18.72;63.84;99528.28;5013809;27;119913;-75
2022/05/24 06:23:33;;;;;;;23.58;14.20;;;;;;;18.74;63.68;99532.03;4984787;28;120335;-75
2022/05/24 06:25:59;;;;;;;20.33;14.18;;;;;;;18.78;63.82;99521.34;5000949;27;121544;-75
2022/05/24 06:28:26;;;;;;;20.52;12.57;;;;;;;18.80;63.85;99529.88;4990395;28;119553;-76
2022/05/24 06:30:52;;;;;;;19.20;11.50;;;;;;;18.85;63.73;99531.78;4990150;28;121051;-75
2022/05/24 06:33:22;;;;;;;17.50;11.73;;;;;;;18.92;63.77;99539.47;5008595;28;120102;-76
2022/05/24 06:35:48;;;;;;;17.27;11.52;;;;;;;18.99;63.83;99541.63;4991004;28;120163;-75
2022/05/24 06:38:15;;;;;;;17.38;11.98;;;;;;;19.07;63.28;99535.41;4994267;27;119970;-75
2022/05/24 06:40:41;;;;;;;13.90;10.10;;;;;;;19.10;63.38;99553.78;4999658;27;120202;-77
2022/05/24 06:43:09;;;;;;;17.20;10.20;;;;;;;19.18;63.50;99558.19;5015987;27;119714;-75
2022/05/24 06:45:35;;;;;;;14.75;10.57;;;;;;;19.19;62.96;99556.88;4991962;28;121925;-75
2022/05/24 06:48:01;;;;;;;17.05;11.00;;;;;;;19.18;62.40;99557.44;4994846;28;119872;-75
2022/05/24 06:50:27;;;;;;;17.97;11.13;;;;;;;19.19;62.55;99565.22;5010396;28;119734;-75
2022/05/24 06:52:56;;;;;;;16.20;10.45;;;;;;;19.19;62.92;99570.03;5020161;27;120061;-74
2022/05/24 06:55:23;;;;;;;17.58;11.52;;;;;;;19.20;62.60;99577.09;5009857;28;120410;-75
2022/05/24 06:57:50;;;;;;;16.52;11.05;;;;;;;19.22;63.08;99580.09;4994230;27;120733;-74
2022/05/24 07:03:10;;;;;;;15.10;11.30;;;;;;;19.18;62.84;99579.66;5017141;27;119439;-74
2022/05/24 07:05:39;;;;;;;17.42;11.13;;;;;;;19.20;62.44;99580.63;4999498;28;120360;-75
2022/05/24 07:08:06;;;;;;;18.38;10.95;;;;;;;19.21;62.80;99589.72;5011514;27;119465;-77
2022/05/24 07:10:35;;;;;;;17.50;10.90;;;;;;;19.20;63.00;99583.41;4996287;28;120025;-75
2022/05/24 07:13:06;;;;;;;17.83;11.77;;;;;;;19.20;62.90;99588.97;4994897;27;120155;-75
2022/05/24 07:15:33;;;;;;;17.95;11.57;;;;;;;19.19;63.31;99581.16;5013291;27;119907;-75
2022/05/24 07:17:59;;;;;;;18.37;11.37;;;;;;;19.19;63.10;99586.72;4996059;28;120478;-75
2022/05/24 07:20:26;;;;;;;18.93;10.90;;;;;;;19.19;63.03;99587.47;4975163;28;120600;-79
2022/05/24 07:22:52;;;;;;;16.52;11.10;;;;;;;19.21;63.37;99589.72;5011847;27;119525;-75
2022/05/24 07:25:18;;;;;;;18.20;11.05;;;;;;;19.22;63.25;99593.97;5012264;27;121347;-74
2022/05/24 07:27:47;;;;;;;15.63;10.45;;;;;;;19.28;63.12;99602.94;5009216;28;119524;-75
2022/05/24 07:30:13;;;;;;;17.55;9.90;;;;;;;19.30;63.13;99612.25;4994701;28;119652;-76
2022/05/24 07:32:39;;;;;;;17.17;10.35;;;;;;;19.28;63.08;99608.50;4992614;27;121688;-77
2022/05/24 07:35:05;;;;;;;14.03;8.77;;;;;;;19.28;62.98;99612.03;5005742;28;119454;-75
2022/05/24 07:37:31;;;;;;;17.85;10.35;;;;;;;19.27;62.96;99616.09;5017965;27;119482;-74
2022/05/24 07:48:13;;;;;;;21.38;13.13;;;;;;;19.25;63.27;99629.03;5016843;27;119910;-75
2022/05/24 07:50:39;;;;;;;20.77;12.43;;;;;;;19.26;63.62;99636.09;4978821;27;122072;-75
2022/05/24 07:53:05;;;;;;;20.10;13.65;;;;;;;19.29;63.59;99643.38;5009784;27;120183;-75
2022/05/24 07:55:31;;;;;;;21.13;13.75;;;;;;;19.30;63.79;99636.50;5000088;27;120351;-74
2022/05/24 07:58:00;;;;;;;17.85;12.35;;;;;;;19.31;63.73;99641.53;5010141;27;121013;-74
2022/05/24 08:00:26;;;;;;;20.67;13.60;;;;;;;19.30;63.61;99639.31;5013202;27;121587;-76
2022/05/24 08:02:52;;;;;;;20.20;13.30;;;;;;;19.30;63.80;99639.31;4993886;27;119974;-75
2022/05/24 08:05:19;;;;;;;20.35;13.90;;;;;;;19.33;63.83;99646.56;5009065;27;119803;-77
2022/05/24 08:07:45;;;;;;;22.27;14.75;;;;;;;19.32;63.68;99647.84;5013234;27;119362;-75
2022/05/24 08:10:12;;;;;;;21.17;13.77;;;;;;;19.32;63.84;99639.50;4990493;28;120303;-75
2022/05/24 08:12:38;;;;;;;20.27;13.43;;;;;;;19.38;63.64;99644.94;5009757;27;120213;-75
2022/05/24 08:15:05;;;;;;;21.85;12.90;;;;;;;19.37;63.36;99658.09;4992895;28;119890;-75
2022/05/24 08:17:30;;;;;;;22.98;13.63;;;;;;;19.33;63.81;99654.91;4990996;28;121113;-75
2022/05/24 08:19:56;;;;;;;19.35;11.73;;;;;;;19.40;63.80;99648.72;5010045;27;121349;-75
2022/05/24 08:22:22;;;;;;;19.42;11.57;;;;;;;19.46;63.22;99654.16;4995359;28;120264;-75
2022/05/24 08:24:48;;;;;;;19.00;10.95;;;;;;;19.54;63.43;99657.81;4993484;27;122569;-75
2022/05/24 08:27:17;;;;;;;16.85;10.32;;;;;;;19.63;62.86;99651.78;5008561;27;119562;-76
2022/05/24 08:29:44;;;;;;;18.85;11.32;;;;;;;19.73;62.81;99663.22;4958515;28;120815;-75
2022/05/24 08:32:12;;;;;;;18.20;11.77;;;;;;;19.81;63.09;99667.59;5011749;27;121546;-75
2022/05/24 08:34:38;;;;;;;18.85;10.77;;;;;;;19.84;62.53;99671.31;4991789;28;119545;-74
2022/05/24 08:37:05;;;;;;;15.35;10.73;;;;;;;19.86;62.07;99669.50;5009150;27;120358;-74
2022/05/24 08:39:31;;;;;;;18.42;10.60;;;;;;;19.87;61.39;99673.03;5012612;27;121224;-74
2022/05/24 08:42:13;;;;;;;15.93;9.93;;;;;;;19.87;61.80;99667.47;5013164;27;119782;-75
2022/05/24 08:50:26;;;;;;;16.77;9.40;;;;;;;19.89;61.67;99695.53;4990145;27;120297;-75
2022/05/24 08:52:59;;;;;;;15.40;9.35;;;;;;;19.88;61.69;99699.59;4994384;28;120039;-75
2022/05/24 08:55:27;;;;;;;14.57;10.35;;;;;;;19.86;61.96;99707.72;4989701;28;119898;-75
2022/05/24 08:57:56;;;;;;;15.88;10.48;;;;;;;19.87;61.43;99709.97;4989665;28;120261;-75
2022/05/24 09:00:28;;;;;;;19.27;10.97;;;;;;;19.89;60.99;99715.00;4973017;28;121651;-75
2022/05/24 09:02:55;;;;;;;17.63;11.30;;;;;;;19.90;61.51;99702.59;5011392;27;119652;-76
2022/05/24 09:05:30;;;;;;;19.42;11.55;;;;;;;19.97;62.27;99707.47;4980312;27;121015;-75
2022/05/24 09:08:16;;;;;;;17.17;10.70;;;;;;;20.05;61.23;99708.31;5013642;27;119446;-74
2022/05/24 09:10:56;;;;;;;16.30;9.93;;;;;;;20.13;61.86;99713.97;4988662;28;120111;-79
2022/05/24 09:14:00;;;;;;;14.48;9.75;;;;;;;20.24;60.75;99719.28;4987070;28;121424;-74
2022/05/24 09:16:35;;;;;;;14.18;8.77;;;;;;;20.32;60.17;99733.28;5005450;27;119666;-75
2022/05/24 09:19:17;;;;;;;16.73;9.40;;;;;;;20.31;60.03;99734.56;4997462;27;119907;-75
2022/05/24 09:21:44;;;;;;;15.80;9.93;;;;;;;20.34;60.64;99734.22;5006284;27;119643;-75
2022/05/24 09:24:41;;;;;;;18.15;10.82;;;;;;;20.34;60.65;99736.28;4994694;27;119897;-74
2022/05/24 09:27:17;;;;;;;16.35;9.82;;;;;;;20.37;61.49;99738.00;5010888;27;119564;-75
2022/05/24 09:29:58;;;;;;;19.27;12.50;;;;;;;20.39;61.42;99747.31;4973193;28;122206;-75
2022/05/24 09:32:30;;;;;;;20.63;13.68;;;;;;;20.40;61.46;99742.47;5009973;27;120026;-75
2022/05/24 09:35:18;;;;;;;20.50;13.73;;;;;;;20.44;60.86;99748.50;4994359;27;120019;-75
2022/05/24 09:38:14;;;;;;;20.42;14.35;;;;;;;20.45;61.58;99747.19;4989901;27;119685;-76
2022/05/24 09:41:08;;;;;;;22.13;13.50;;;;;;;20.46;60.86;99735.53;5005250;28;119569;-75
2022/05/24 09:43:36;;;;;;;20.88;14.15;;;;;;;20.46;61.24;99738.31;5000583;28;119851;-75
2022/05/24 09:46:06;;;;;;;22.38;14.70;;;;;;;20.50;61.87;99746.31;4979850;28;120028;-75
2022/05/24 09:48:37;;;;;;;21.55;13.50;;;;;;;20.57;61.66;99758.81;4987717;28;121020;-77
2022/05/24 09:51:10;;;;;;;19.13;11.93;;;;;;;20.59;61.52;99754.22;4986567;28;120734;-76
2022/05/24 09:53:47;;;;;;;16.95;11.98;;;;;;;20.63;60.68;99740.69;5009369;27;120418;-75
2022/05/24 09:56:33;;;;;;;18.13;11.80;;;;;;;20.72;60.69;99761.75;5008209;27;120335;-75
2022/05/24 09:59:05;;;;;;;16.33;11.90;;;;;;;20.74;60.67;99768.28;5002473;28;119866;-75
2022/05/24 10:01:50;;;;;;;18.73;12.48;;;;;;;20.69;60.19;99766.38;4992335;28;120046;-75
2022/05/24 10:04:39;;;;;;;17.98;12.18;;;;;;;20.72;59.96;99773.66;5002334;28;120297;-75
2022/05/24 10:07:21;;;;;;;18.15;12.35;;;;;;;20.67;59.71;99782.91;4987824;27;119829;-75
2022/05/24 10:09:50;;;;;;;19.00;12.75;;;;;;;20.63;60.50;99784.53;4998336;27;119666;-76
2022/05/24 10:12:43;;;;;;;18.67;12.45;;;;;;;20.58;60.79;99785.38;5014962;27;119572;-75
2022/05/24 10:15:21;;;;;;;19.90;12.15;;;;;;;20.57;60.52;99779.06;5004011;28;119892;-75
2022/05/24 10:18:09;;;;;;;16.42;10.57;;;;;;;20.51;60.24;99772.88;4992868;28;119760;-75
2022/05/24 10:20:49;;;;;;;14.48;10.45;;;;;;;20.52;60.52;99774.38;4989009;28;120212;-75
2022/05/24 10:23:33;;;;;;;12.57;9.10;;;;;;;20.55;60.29;99778.88;5010736;27;119937;-75
2022/05/24 10:26:26;;;;;;;18.37;10.40;;;;;;;20.57;60.46;99773.50;5015173;27;120088;-74
2022/05/24 10:29:09;;;;;;;13.63;9.43;;;;;;;20.57;59.28;99797.81;5003002;27;119848;-76
2022/05/24 10:31:54;;;;;;;16.08;10.68;;;;;;;20.50;59.94;99793.66;5008177;28;119599;-75
2022/05/24 10:41:08;;;;;;;15.47;10.57;;;;;;;20.52;61.17;99799.44;5008968;28;119796;-75
2022/05/24 10:43:37;;;;;;;17.77;10.70;;;;;;;20.68;60.80;99792.75;5020499;27;121792;-74
2022/05/24 10:46:13;;;;;;;14.95;10.48;;;;;;;20.82;60.92;99802.56;5011805;27;119609;-76
2022/05/24 10:48:48;;;;;;;14.30;10.07;;;;;;;20.90;60.17;99802.63;4991764;28;120660;-75
2022/05/24 10:51:23;;;;;;;16.00;10.10;;;;;;;20.99;59.33;99804.19;4992329;28;119916;-75
2022/05/24 10:53:56;;;;;;;16.20;10.15;;;;;;;21.08;59.78;99806.50;5006001;28;119867;-75
2022/05/24 10:56:32;;;;;;;10.32;6.15;;;;;;;21.09;57.72;99816.38;4992527;28;120394;-75
2022/05/24 10:59:10;;;;;;;10.80;5.40;;;;;;;21.09;56.94;99810.78;5009826;28;119827;-75
2022/05/24 11:01:45;;;;;;;9.93;5.78;;;;;;;21.05;56.47;99815.94;4987979;28;120075;-75
2022/05/24 11:04:17;;;;;;;9.00;5.72;;;;;;;21.11;57.37;99819.38;5001415;27;119875;-75
2022/05/24 11:06:53;;;;;;;10.73;5.20;;;;;;;21.11;56.76;99825.69;4991507;27;119916;-75
2022/05/24 11:09:24;;;;;;;9.27;5.03;;;;;;;21.10;56.52;99826.97;5009399;27;121059;-79
2022/05/24 11:12:10;;;;;;;8.85;5.32;;;;;;;21.14;56.47;99826.63;4992794;28;119578;-76
2022/05/24 11:14:41;;;;;;;11.85;6.10;;;;;;;21.04;56.76;99803.28;5018929;27;119515;-77
2022/05/24 11:17:12;;;;;;;12.05;6.55;;;;;;;21.11;56.09;99813.78;5017624;27;120174;-75
2022/05/24 11:19:44;;;;;;;10.75;6.10;;;;;;;21.10;55.82;99820.66;5003870;28;120145;-75
2022/05/24 11:22:23;;;;;;;12.50;6.40;;;;;;;21.11;56.59;99822.16;5010179;27;119935;-75
2022/05/24 11:25:11;;;;;;;11.27;6.53;;;;;;;21.14;56.58;99829.41;5007909;27;120082;-75
2022/05/24 11:27:48;;;;;;;10.25;6.60;;;;;;;21.15;57.42;99823.31;4990128;28;119631;-75
2022/05/24 11:30:16;;;;;;;13.93;7.90;;;;;;;21.16;57.19;99826.84;5016573;27;119556;-75
2022/05/24 11:33:09;;;;;;;12.00;7.10;;;;;;;21.14;56.42;99823.84;4991425;28;119779;-75
2022/05/24 11:35:42;;;;;;;12.98;7.78;;;;;;;21.09;56.41;99821.94;5005481;27;119755;-77
2022/05/24 11:38:23;;;;;;;12.90;7.97;;;;;;;21.12;57.27;99829.22;5008804;28;120871;-75
2022/05/24 11:41:12;;;;;;;13.03;7.47;;;;;;;21.07;56.63;99836.44;5006752;27;119722;-76
2022/05/24 11:43:43;;;;;;;12.25;7.88;;;;;;;21.03;56.86;99835.25;5004143;27;119597;-74
2022/05/24 11:46:28;;;;;;;15.15;9.15;;;;;;;21.00;58.76;99847.50;5009762;27;119614;-76
2022/05/24 11:48:56;;;;;;;13.70;8.10;;;;;;;20.96;57.47;99847.09;5013425;27;119903;-75
2022/05/24 11:51:41;;;;;;;14.52;8.10;;;;;;;20.98;57.61;99847.28;4993894;28;121215;-75
2022/05/24 11:54:29;;;;;;;13.15;7.32;;;;;;;20.98;57.08;99848.03;4977315;27;121395;-77
2022/05/24 11:57:01;;;;;;;11.30;7.30;;;;;;;20.99;58.12;99852.31;5012231;27;120155;-75
2022/05/24 11:59:43;;;;;;;11.15;7.00;;;;;;;21.05;57.89;99864.09;4985788;28;119854;-75
2022/05/24 12:02:31;;;;;;;12.10;6.53;;;;;;;21.11;56.63;99852.81;5010074;27;119982;-75
2022/05/24 12:07:55;;;;;;;9.33;6.10;;;;;;;21.14;56.24;99869.22;4991065;28;120594;-75
2022/05/24 12:10:20;;;;;;;11.98;5.55;;;;;;;21.20;56.01;99871.84;5000712;28;119708;-77
2022/05/24 12:12:46;;;;;;;9.07;5.00;;;;;;;21.23;55.84;99870.75;5008153;28;120206;-75